createdAt,value
2022-11-28T00:01:47.095Z,102240.55
2022-11-28T00:04:16.367Z,102241.95
2022-11-28T00:06:50.157Z,102241.05
2022-11-28T00:09:21.585Z,102241.07
2022-11-28T00:11:50.919Z,102242.60
2022-11-28T00:14:20.638Z,102242.47
2022-11-28T00:16:49.934Z,102242.20
2022-11-28T00:19:18.630Z,102243.19
2022-11-28T00:21:47.557Z,102241.94
2022-11-28T00:24:16.823Z,102237.70
2022-11-28T00:26:45.735Z,102240.30
2022-11-28T00:29:14.602Z,102238.73
2022-11-28T00:31:44.212Z,102236.66
2022-11-28T00:34:15.542Z,102238.89
2022-11-28T00:36:47.011Z,102241.47
2022-11-28T00:39:17.210Z,102238.63
2022-11-28T00:41:46.324Z,102250.40
2022-11-28T00:44:15.526Z,102244.21
2022-11-28T00:46:44.317Z,102236.55
2022-11-28T00:49:13.624Z,102229.98
2022-11-28T00:51:42.285Z,102233.03
2022-11-28T00:54:11.047Z,102232.61
2022-11-28T00:56:40.611Z,102233.98
2022-11-28T00:59:09.592Z,102234.48
2022-11-28T01:01:42.664Z,102228.59
2022-11-28T01:04:14.856Z,102225.98
2022-11-28T01:06:52.957Z,102227.92
2022-11-28T01:09:24.265Z,102229.83
2022-11-28T01:11:55.126Z,102230.20
2022-11-28T01:14:25.968Z,102230.88
2022-11-28T01:16:54.789Z,102228.66
2022-11-28T01:19:23.669Z,102226.23
2022-11-28T01:21:52.652Z,102216.63
2022-11-28T01:24:21.237Z,102213.58
2022-11-28T01:26:49.862Z,102215.00
2022-11-28T01:29:18.467Z,102216.15
2022-11-28T01:31:47.269Z,102212.83
2022-11-28T01:34:16.921Z,102213.13
2022-11-28T01:36:45.494Z,102210.59
2022-11-28T01:39:15.917Z,102210.55
2022-11-28T01:41:44.550Z,102208.59
2022-11-28T01:44:15.881Z,102206.91
2022-11-28T01:46:44.776Z,102204.46
2022-11-28T01:49:19.176Z,102194.19
2022-11-28T01:52:07.997Z,102197.64
2022-11-28T01:54:37.979Z,102201.23
2022-11-28T01:57:11.349Z,102207.25
2022-11-28T01:59:49.420Z,102209.64
2022-11-28T02:02:57.655Z,102216.92
2022-11-28T02:05:26.317Z,102218.11
2022-11-28T02:07:55.171Z,102207.52
2022-11-28T02:10:51.948Z,102195.70
2022-11-28T02:13:47.369Z,102188.19
2022-11-28T02:16:50.727Z,102184.08
2022-11-28T02:19:59.837Z,102184.11
2022-11-28T02:22:46.516Z,102191.35
2022-11-28T02:25:32.201Z,102195.20
2022-11-28T02:28:41.164Z,102190.23
2022-11-28T02:31:33.783Z,102190.20
2022-11-28T02:34:25.584Z,102190.17
2022-11-28T02:37:09.291Z,102191.02
2022-11-28T02:40:10.251Z,102191.92
2022-11-28T02:43:03.921Z,102186.23
2022-11-28T02:45:51.031Z,102186.55
2022-11-28T02:49:00.046Z,102178.08
2022-11-28T02:51:41.016Z,102177.80
2022-11-28T02:54:14.938Z,102181.98
2022-11-28T02:56:51.718Z,102179.39
2022-11-28T02:59:38.570Z,102180.08
2022-11-28T03:02:27.851Z,102183.00
2022-11-28T03:05:08.805Z,102178.59
2022-11-28T03:07:55.947Z,102176.19
2022-11-28T03:10:45.446Z,102176.06
2022-11-28T03:13:47.440Z,102171.48
2022-11-28T03:16:39.213Z,102166.24
2022-11-28T03:19:22.725Z,102163.63
2022-11-28T03:21:54.098Z,102160.39
2022-11-28T03:24:34.288Z,102164.17
2022-11-28T03:27:24.043Z,102169.30
2022-11-28T03:30:08.988Z,102173.41
2022-11-28T03:32:40.633Z,102178.89
2022-11-28T03:35:19.280Z,102182.86
2022-11-28T03:38:22.582Z,102188.00
2022-11-28T03:40:56.658Z,102190.55
2022-11-28T03:43:33.203Z,102187.49
2022-11-28T03:46:08.839Z,102185.08
2022-11-28T03:48:46.666Z,102185.45
2022-11-28T03:51:26.014Z,102183.58
2022-11-28T03:54:11.439Z,102183.41
2022-11-28T03:56:52.364Z,102186.34
2022-11-28T03:59:45.067Z,102189.08
2022-11-28T04:02:30.553Z,102190.47
2022-11-28T04:05:28.592Z,102192.41
2022-11-28T04:08:19.518Z,102194.13
2022-11-28T04:11:09.461Z,102197.88
2022-11-28T04:14:08.650Z,102204.21
2022-11-28T04:17:29.564Z,102207.48
2022-11-28T04:20:18.794Z,102208.66
2022-11-28T04:23:01.343Z,102209.85
2022-11-28T04:25:34.804Z,102211.92
2022-11-28T04:28:14.957Z,102210.59
2022-11-28T04:30:45.961Z,102213.16
2022-11-28T04:33:17.684Z,102209.22
2022-11-28T04:35:51.980Z,102214.16
2022-11-28T04:38:25.115Z,102206.27
2022-11-28T04:41:17.455Z,102222.01
2022-11-28T04:44:03.633Z,102224.92
2022-11-28T04:46:40.717Z,102223.05
2022-11-28T04:49:10.645Z,102223.36
2022-11-28T04:52:20.509Z,102228.84
2022-11-28T04:55:29.037Z,102225.60
2022-11-28T04:58:22.981Z,102227.23
2022-11-28T05:00:54.577Z,102229.08
2022-11-28T05:03:28.557Z,102229.60
2022-11-28T05:05:57.578Z,102227.89
2022-11-28T05:08:26.243Z,102230.42
2022-11-28T05:10:55.152Z,102229.20
2022-11-28T05:13:23.815Z,102225.77
2022-11-28T05:15:52.726Z,102225.08
2022-11-28T05:18:21.307Z,102225.92
2022-11-28T05:20:50.044Z,102225.21
2022-11-28T05:23:20.391Z,102225.52
2022-11-28T05:25:49.037Z,102230.85
2022-11-28T05:28:17.726Z,102233.34
2022-11-28T05:30:58.526Z,102235.84
2022-11-28T05:33:28.739Z,102239.25
2022-11-28T05:36:05.467Z,102237.67
2022-11-28T05:38:36.438Z,102241.38
2022-11-28T05:41:05.357Z,102242.44
2022-11-28T05:43:34.299Z,102244.67
2022-11-28T05:46:06.810Z,102248.64
2022-11-28T05:48:36.034Z,102246.68
2022-11-28T05:51:06.004Z,102247.85
2022-11-28T05:53:35.390Z,102257.05
2022-11-28T05:56:13.912Z,102250.95
2022-11-28T05:58:42.931Z,102248.98
2022-11-28T06:01:14.149Z,102250.80
2022-11-28T06:03:43.368Z,102250.61
2022-11-28T06:06:19.691Z,102254.02
2022-11-28T06:08:51.651Z,102253.13
2022-11-28T06:11:23.430Z,102249.71
2022-11-28T06:13:52.745Z,102248.02
2022-11-28T06:16:25.533Z,102256.77
2022-11-28T06:19:00.150Z,102260.38
2022-11-28T06:21:30.770Z,102264.83
2022-11-28T06:24:00.419Z,102265.71
2022-11-28T06:26:29.957Z,102267.65
2022-11-28T06:28:58.681Z,102266.44
2022-11-28T06:31:30.273Z,102266.41
2022-11-28T06:33:59.565Z,102263.51
2022-11-28T06:36:28.208Z,102266.52
2022-11-28T06:38:56.930Z,102262.41
2022-11-28T06:41:25.642Z,102263.19
2022-11-28T06:43:55.372Z,102263.55
2022-11-28T06:46:24.325Z,102264.35
2022-11-28T06:48:53.538Z,102261.52
2022-11-28T06:51:22.409Z,102266.45
2022-11-28T06:53:51.322Z,102262.45
2022-11-28T06:56:21.131Z,102260.69
2022-11-28T06:58:58.674Z,102257.90
2022-11-28T07:01:31.172Z,102256.14
2022-11-28T07:04:01.533Z,102257.16
2022-11-28T07:06:30.493Z,102251.96
2022-11-28T07:08:59.686Z,102250.87
2022-11-28T07:11:31.774Z,102249.60
2022-11-28T07:14:02.872Z,102248.68
2022-11-28T07:16:33.715Z,102243.70
2022-11-28T07:19:03.247Z,102236.45
2022-11-28T07:21:32.530Z,102230.59
2022-11-28T07:24:01.283Z,102228.10
2022-11-28T07:26:30.936Z,102233.36
2022-11-28T07:29:00.298Z,102234.39
2022-11-28T07:31:32.408Z,102238.09
2022-11-28T07:34:03.744Z,102242.65
2022-11-28T07:36:32.511Z,102242.64
2022-11-28T07:39:03.720Z,102241.38
2022-11-28T07:41:32.494Z,102241.17
2022-11-28T07:44:03.597Z,102241.34
2022-11-28T07:46:34.353Z,102244.76
2022-11-28T07:49:04.367Z,102240.19
2022-11-28T07:51:34.324Z,102244.33
2022-11-28T07:54:05.065Z,102241.80
2022-11-28T07:57:10.779Z,102241.22
2022-11-28T07:59:25.862Z,102240.16
2022-11-28T08:01:54.560Z,102244.87
2022-11-28T08:04:23.403Z,102241.56
2022-11-28T08:06:52.743Z,102238.58
2022-11-28T08:09:21.615Z,102237.00
2022-11-28T08:11:52.708Z,102238.16
2022-11-28T08:14:21.371Z,102242.13
2022-11-28T08:16:50.186Z,102237.17
2022-11-28T08:19:23.058Z,102235.41
2022-11-28T08:21:53.522Z,102236.48
2022-11-28T08:24:22.139Z,102233.78
2022-11-28T08:26:50.895Z,102234.73
2022-11-28T08:29:19.629Z,102231.92
2022-11-28T08:31:48.422Z,102231.24
2022-11-28T08:34:17.037Z,102227.02
2022-11-28T08:36:47.498Z,102227.58
2022-11-28T08:39:24.826Z,102222.74
2022-11-28T08:41:59.128Z,102223.70
2022-11-28T08:44:30.386Z,102221.42
2022-11-28T08:46:59.385Z,102215.79
2022-11-28T08:49:28.026Z,102213.08
2022-11-28T08:51:56.621Z,102209.84
2022-11-28T08:54:25.297Z,102204.69
2022-11-28T08:56:53.895Z,102203.45
2022-11-28T08:59:22.681Z,102201.79
2022-11-28T09:01:55.176Z,102202.09
2022-11-28T09:04:24.303Z,102197.59
2022-11-28T09:06:53.094Z,102192.58
2022-11-28T09:09:22.093Z,102190.61
2022-11-28T09:11:51.023Z,102183.08
2022-11-28T09:14:19.758Z,102178.84
2022-11-28T09:16:48.664Z,102180.08
2022-11-28T09:19:17.408Z,102181.94
2022-11-28T09:21:46.057Z,102179.07
2022-11-28T09:24:14.667Z,102180.84
2022-11-28T09:26:43.398Z,102173.07
2022-11-28T09:29:12.022Z,102176.38
2022-11-28T09:31:45.823Z,102173.06
2022-11-28T09:34:16.328Z,102170.17
2022-11-28T09:36:45.056Z,102161.78
2022-11-28T09:39:13.660Z,102158.42
2022-11-28T09:42:22.419Z,102156.79
2022-11-28T09:44:58.365Z,102152.15
2022-11-28T09:47:35.057Z,102150.42
2022-11-28T09:50:11.018Z,102148.24
2022-11-28T09:53:01.158Z,102148.27
2022-11-28T09:55:44.471Z,102142.96
2022-11-28T09:58:39.997Z,102137.31
2022-11-28T10:01:19.590Z,102134.70
2022-11-28T10:04:52.338Z,102133.98
2022-11-28T10:07:43.153Z,102130.58
2022-11-28T10:10:38.149Z,102134.66
2022-11-28T10:14:05.976Z,102129.14
2022-11-28T10:16:54.905Z,102126.70
2022-11-28T10:20:04.752Z,102123.54
2022-11-28T10:22:52.191Z,102118.09
2022-11-28T10:25:37.485Z,102115.69
2022-11-28T10:28:13.687Z,102115.14
2022-11-28T10:30:48.649Z,102114.15
2022-11-28T10:33:31.969Z,102108.20
2022-11-28T10:36:02.488Z,102103.86
2022-11-28T10:38:34.996Z,102107.02
2022-11-28T10:41:29.009Z,102108.23
2022-11-28T10:44:21.504Z,102100.63
2022-11-28T10:47:06.239Z,102094.31
2022-11-28T10:49:49.038Z,102097.90
2022-11-28T10:52:29.579Z,102090.19
2022-11-28T10:55:51.866Z,102087.91
2022-11-28T10:59:07.320Z,102085.13
2022-11-28T11:01:43.775Z,102083.10
2022-11-28T11:04:29.333Z,102086.11
2022-11-28T11:07:29.257Z,102082.58
2022-11-28T11:10:18.229Z,102082.06
2022-11-28T11:12:50.562Z,102076.29
2022-11-28T11:15:32.918Z,102079.07
2022-11-28T11:18:19.942Z,102075.67
2022-11-28T11:20:48.630Z,102075.22
2022-11-28T11:23:21.409Z,102075.70
2022-11-28T11:25:58.517Z,102076.16
2022-11-28T11:28:41.239Z,102072.27
2022-11-28T11:31:33.628Z,102075.29
2022-11-28T11:34:13.200Z,102069.27
2022-11-28T11:36:41.812Z,102070.67
2022-11-28T11:39:11.058Z,102066.66
2022-11-28T11:41:50.167Z,102069.38
2022-11-28T11:44:34.986Z,102070.03
2022-11-28T11:47:09.361Z,102068.78
2022-11-28T11:49:44.778Z,102065.05
2022-11-28T11:52:13.628Z,102064.81
2022-11-28T11:54:57.348Z,102063.67
2022-11-28T11:57:36.054Z,102064.69
2022-11-28T12:00:12.091Z,102060.76
2022-11-28T12:02:56.947Z,102057.72
2022-11-28T12:05:52.400Z,102051.74
2022-11-28T12:08:50.388Z,102051.23
2022-11-28T12:11:28.024Z,102051.67
2022-11-28T12:14:13.598Z,102056.40
2022-11-28T12:17:19.437Z,102052.57
2022-11-28T12:20:32.169Z,102055.60
2022-11-28T12:23:22.138Z,102056.80
2022-11-28T12:26:08.827Z,102049.95
2022-11-28T12:29:15.076Z,102052.98
2022-11-28T12:32:08.982Z,102053.43
2022-11-28T12:35:14.404Z,102059.45
2022-11-28T12:38:18.124Z,102060.00
2022-11-28T12:41:31.945Z,102064.27
2022-11-28T12:44:52.678Z,102070.25
2022-11-28T12:47:51.476Z,102072.89
2022-11-28T12:51:01.166Z,102070.08
2022-11-28T12:54:08.456Z,102073.42
2022-11-28T12:56:43.027Z,102072.39
2022-11-28T12:59:45.646Z,102074.22
2022-11-28T13:02:27.122Z,102075.48
2022-11-28T13:05:29.825Z,102085.42
2022-11-28T13:08:25.929Z,102083.30
2022-11-28T13:11:24.615Z,102082.21
2022-11-28T13:14:16.235Z,102088.63
2022-11-28T13:17:00.407Z,102088.61
2022-11-28T13:20:04.067Z,102090.83
2022-11-28T13:23:05.962Z,102098.66
2022-11-28T13:25:48.376Z,102096.59
2022-11-28T13:28:28.515Z,102097.77
2022-11-28T13:31:12.670Z,102096.70
2022-11-28T13:33:57.916Z,102100.44
2022-11-28T13:40:26.982Z,102109.52
2022-11-28T13:43:23.426Z,102112.49
2022-11-28T13:45:53.036Z,102111.05
2022-11-28T13:51:32.341Z,102116.77
2022-11-28T13:54:20.047Z,102116.59
2022-11-28T13:57:06.797Z,102112.12
2022-11-28T13:59:36.930Z,102114.36
2022-11-28T14:02:36.209Z,102114.25
2022-11-28T14:05:15.619Z,102114.61
2022-11-28T14:07:48.181Z,102114.33
2022-11-28T14:10:28.954Z,102110.71
2022-11-28T14:13:30.519Z,102110.02
2022-11-28T14:17:09.741Z,102105.44
2022-11-28T14:20:05.841Z,102104.83
2022-11-28T14:23:08.660Z,102108.73
2022-11-28T14:25:43.470Z,102105.44
2022-11-28T14:29:49.113Z,102105.66
2022-11-28T14:32:42.027Z,102106.40
2022-11-28T14:35:54.439Z,102103.34
2022-11-28T14:38:32.484Z,102102.48
2022-11-28T14:41:14.630Z,102104.23
2022-11-28T14:43:48.255Z,102104.26
2022-11-28T14:46:27.318Z,102106.17
2022-11-28T14:48:59.930Z,102113.45
2022-11-28T14:52:09.895Z,102115.41
2022-11-28T14:54:44.269Z,102116.85
2022-11-28T14:57:19.770Z,102111.68
2022-11-28T14:59:50.380Z,102114.46
2022-11-28T15:02:49.123Z,102117.27
2022-11-28T15:05:44.338Z,102114.94
2022-11-28T15:08:38.419Z,102116.02
2022-11-28T15:11:13.303Z,102114.55
2022-11-28T15:14:09.284Z,102113.48
2022-11-28T15:16:50.105Z,102115.27
2022-11-28T15:19:45.425Z,102119.26
2022-11-28T15:22:38.801Z,102118.39
2022-11-28T15:25:27.105Z,102113.46
2022-11-28T15:27:57.205Z,102115.55
2022-11-28T15:30:27.153Z,102118.52
2022-11-28T15:33:00.649Z,102122.48
2022-11-28T15:35:29.507Z,102122.27
2022-11-28T15:37:59.016Z,102124.11
2022-11-28T15:40:36.427Z,102122.73
2022-11-28T15:43:11.267Z,102124.34
2022-11-28T15:45:44.672Z,102126.36
2022-11-28T15:48:40.119Z,102124.48
2022-11-28T15:51:33.134Z,102117.13
2022-11-28T15:54:11.981Z,102117.64
2022-11-28T15:56:57.874Z,102124.45
2022-11-28T15:59:26.798Z,102123.08
2022-11-28T16:02:02.261Z,102122.15
2022-11-28T16:04:31.530Z,102116.02
2022-11-28T16:07:02.317Z,102119.40
2022-11-28T16:09:35.899Z,102118.87
2022-11-28T16:12:13.800Z,102118.55
2022-11-28T16:14:46.562Z,102120.34
2022-11-28T16:17:23.509Z,102122.75
2022-11-28T16:19:54.895Z,102123.50
2022-11-28T16:22:32.804Z,102127.77
2022-11-28T16:25:30.753Z,102130.27
2022-11-28T16:28:00.082Z,102126.16
2022-11-28T16:30:37.449Z,102123.21
2022-11-28T16:33:52.459Z,102128.63
2022-11-28T16:36:31.273Z,102126.79
2022-11-28T16:39:16.486Z,102123.82
2022-11-28T16:42:20.407Z,102120.52
2022-11-28T16:44:49.074Z,102122.41
2022-11-28T16:47:30.732Z,102123.84
2022-11-28T16:50:23.756Z,102127.98
2022-11-28T16:52:53.421Z,102125.23
2022-11-28T16:55:34.284Z,102112.44
2022-11-28T16:58:21.758Z,102127.78
2022-11-28T17:01:03.425Z,102126.61
2022-11-28T17:04:00.007Z,102119.73
2022-11-28T17:06:37.176Z,102120.64
2022-11-28T17:09:13.109Z,102121.81
2022-11-28T17:11:50.670Z,102120.98
2022-11-28T17:14:19.391Z,102119.23
2022-11-28T17:16:48.144Z,102119.50
2022-11-28T17:19:16.990Z,102119.03
2022-11-28T17:21:54.258Z,102116.80
2022-11-28T17:24:27.478Z,102118.23
2022-11-28T17:26:56.330Z,102116.73
2022-11-28T17:29:28.853Z,102115.73
2022-11-28T17:31:59.113Z,102118.63
2022-11-28T17:34:31.829Z,102117.80
2022-11-28T17:37:02.430Z,102116.02
2022-11-28T17:39:31.965Z,102117.89
2022-11-28T17:42:01.097Z,102113.77
2022-11-28T17:44:34.030Z,102114.58
2022-11-28T17:47:03.532Z,102114.05
2022-11-28T17:49:32.298Z,102112.33
2022-11-28T17:52:00.968Z,102109.45
2022-11-28T17:54:30.843Z,102108.11
2022-11-28T17:56:59.518Z,102109.59
2022-11-28T17:59:28.281Z,102109.25
2022-11-28T18:01:57.027Z,102109.45
2022-11-28T18:04:26.300Z,102111.61
2022-11-28T18:06:55.230Z,102107.59
2022-11-28T18:09:23.974Z,102106.23
2022-11-28T18:11:53.163Z,102105.36
2022-11-28T18:14:21.947Z,102104.12
2022-11-28T18:16:50.680Z,102098.92
2022-11-28T18:19:19.431Z,102104.37
2022-11-28T18:21:49.984Z,102104.95
2022-11-28T18:24:19.264Z,102104.54
2022-11-28T18:26:47.997Z,102108.14
2022-11-28T18:29:17.655Z,102106.30
2022-11-28T18:31:46.486Z,102105.73
2022-11-28T18:34:15.339Z,102105.09
2022-11-28T18:36:44.366Z,102109.67
2022-11-28T18:39:15.704Z,102109.60
2022-11-28T18:41:46.050Z,102107.01
2022-11-28T18:44:14.757Z,102106.04
2022-11-28T18:46:43.491Z,102106.80
2022-11-28T18:49:15.438Z,102106.48
2022-11-28T18:51:44.084Z,102104.42
2022-11-28T18:54:20.597Z,102103.59
2022-11-28T18:56:50.430Z,102105.28
2022-11-28T18:59:20.013Z,102104.11
2022-11-28T19:01:49.405Z,102103.58
2022-11-28T19:04:18.735Z,102097.48
2022-11-28T19:06:51.887Z,102092.48
2022-11-28T19:09:58.877Z,102094.97
2022-11-28T19:12:28.147Z,102095.90
2022-11-28T19:15:02.684Z,102092.40
2022-11-28T19:17:31.859Z,102088.94
2022-11-28T19:20:01.212Z,102090.95
2022-11-28T19:22:31.121Z,102081.63
2022-11-28T19:24:59.952Z,102084.65
2022-11-28T19:27:29.129Z,102079.47
2022-11-28T19:29:58.034Z,102082.14
2022-11-28T19:32:36.606Z,102081.00
2022-11-28T19:35:05.948Z,102085.42
2022-11-28T19:37:34.733Z,102085.38
2022-11-28T19:40:04.057Z,102087.27
2022-11-28T19:42:33.410Z,102089.33
2022-11-28T19:45:02.090Z,102090.40
2022-11-28T19:47:31.502Z,102097.41
2022-11-28T19:50:00.417Z,102095.55
2022-11-28T19:52:29.123Z,102092.42
2022-11-28T19:54:58.165Z,102090.55
2022-11-28T19:57:26.917Z,102089.20
2022-11-28T19:59:55.687Z,102090.54
2022-11-28T20:02:24.398Z,102093.80
2022-11-28T20:04:53.325Z,102098.57
2022-11-28T20:07:22.156Z,102100.98
2022-11-28T20:09:51.408Z,102097.50
2022-11-28T20:12:20.522Z,102088.36
2022-11-28T20:14:49.256Z,102089.91
2022-11-28T20:17:17.925Z,102090.45
2022-11-28T20:19:48.275Z,102091.85
2022-11-28T20:22:17.656Z,102091.50
2022-11-28T20:24:47.441Z,102082.92
2022-11-28T20:27:16.273Z,102085.20
2022-11-28T20:29:45.762Z,102082.33
2022-11-28T20:32:14.944Z,102078.69
2022-11-28T20:34:43.891Z,102077.52
2022-11-28T20:37:12.729Z,102077.83
2022-11-28T20:39:41.614Z,102079.35
2022-11-28T20:42:11.146Z,102080.58
2022-11-28T20:44:40.016Z,102074.28
2022-11-28T20:47:11.227Z,102077.89
2022-11-28T20:49:40.048Z,102074.95
2022-11-28T20:52:08.810Z,102076.13
2022-11-28T20:54:37.573Z,102076.27
2022-11-28T20:57:20.755Z,102073.16
2022-11-28T20:59:50.508Z,102072.45
2022-11-28T21:02:19.152Z,102070.86
2022-11-28T21:04:47.833Z,102074.63
2022-11-28T21:07:16.686Z,102073.71
2022-11-28T21:09:46.263Z,102075.58
2022-11-28T21:12:20.690Z,102068.19
2022-11-28T21:14:54.794Z,102069.27
2022-11-28T21:17:23.451Z,102074.75
2022-11-28T21:19:52.252Z,102073.39
2022-11-28T21:22:21.144Z,102072.20
2022-11-28T21:24:51.576Z,102075.09
2022-11-28T21:27:20.464Z,102077.82
2022-11-28T21:29:52.610Z,102074.88
2022-11-28T21:32:21.300Z,102074.58
2022-11-28T21:34:49.972Z,102077.86
2022-11-28T21:37:18.613Z,102079.02
2022-11-28T21:39:47.430Z,102082.79
2022-11-28T21:42:20.554Z,102081.76
2022-11-28T21:44:49.684Z,102081.98
2022-11-28T21:47:18.299Z,102082.79
2022-11-28T21:49:47.093Z,102077.89
2022-11-28T21:52:16.891Z,102079.47
2022-11-28T21:54:46.135Z,102078.39
2022-11-28T21:57:15.245Z,102078.41
2022-11-28T21:59:45.161Z,102073.86
2022-11-28T22:02:15.581Z,102071.81
2022-11-28T22:04:44.855Z,102073.73
2022-11-28T22:07:14.220Z,102072.61
2022-11-28T22:09:43.253Z,102071.20
2022-11-28T22:12:12.602Z,102070.52
2022-11-28T22:14:41.695Z,102072.06
2022-11-28T22:17:10.582Z,102069.61
2022-11-28T22:19:39.781Z,102069.96
2022-11-28T22:22:08.781Z,102070.80
2022-11-28T22:24:37.910Z,102065.79
2022-11-28T22:27:07.069Z,102066.63
2022-11-28T22:29:36.159Z,102063.73
2022-11-28T22:32:05.906Z,102063.50
2022-11-28T22:34:39.688Z,102067.83
2022-11-28T22:37:09.811Z,102065.38
2022-11-28T22:39:39.320Z,102065.55
2022-11-28T22:42:08.613Z,102065.77
2022-11-28T22:44:37.295Z,102063.09
2022-11-28T22:47:06.485Z,102059.80
2022-11-28T22:49:35.488Z,102056.91
2022-11-28T22:52:05.405Z,102058.30
2022-11-28T22:54:34.501Z,102055.27
2022-11-28T22:57:04.820Z,102056.79
2022-11-28T22:59:37.007Z,102056.67
2022-11-28T23:02:05.893Z,102054.48
2022-11-28T23:04:34.988Z,102053.33
2022-11-28T23:07:04.887Z,102056.98
2022-11-28T23:09:35.231Z,102056.98
2022-11-28T23:12:04.400Z,102056.95
2022-11-28T23:14:33.719Z,102053.85
2022-11-28T23:17:02.933Z,102051.81
2022-11-28T23:19:33.036Z,102049.48
2022-11-28T23:22:01.744Z,102048.29
2022-11-28T23:24:31.227Z,102049.63
2022-11-28T23:27:00.631Z,102047.62
2022-11-28T23:29:30.862Z,102046.09
2022-11-28T23:31:59.570Z,102050.27
2022-11-28T23:34:29.770Z,102049.80
2022-11-28T23:37:00.513Z,102050.19
2022-11-28T23:39:30.104Z,102048.21
2022-11-28T23:42:05.858Z,102044.06
2022-11-28T23:44:34.859Z,102041.23
2022-11-28T23:47:03.641Z,102043.58
2022-11-28T23:49:32.547Z,102042.21
2022-11-28T23:52:01.540Z,102037.04
2022-11-28T23:54:30.636Z,102032.94
2022-11-28T23:56:59.522Z,102035.55
2022-11-28T23:59:28.816Z,102037.67
